createdAt,value
2023-01-17T00:07:13.330Z,97933.97
2023-01-17T00:17:15.577Z,97932.16
2023-01-17T00:27:17.354Z,97934.53
2023-01-17T00:37:19.026Z,97921.72
2023-01-17T00:47:41.049Z,97931.78
2023-01-17T00:58:04.462Z,97926.59
2023-01-17T01:08:42.357Z,97926.47
2023-01-17T01:19:08.396Z,97917.09
2023-01-17T01:29:29.835Z,97914.38
2023-01-17T01:39:37.423Z,97923.16
2023-01-17T01:49:48.890Z,97949.56
2023-01-17T01:59:57.955Z,97933.66
2023-01-17T02:10:00.940Z,97891.16
2023-01-17T02:20:26.971Z,97888.69
2023-01-17T02:30:48.403Z,97893.78
2023-01-17T02:40:55.981Z,97900.69
2023-01-17T02:51:13.687Z,97876.84
2023-01-17T03:01:43.382Z,97844.50
2023-01-17T03:11:47.448Z,97813.91
2023-01-17T03:21:50.592Z,97810.50
2023-01-17T03:31:52.336Z,97784.94
2023-01-17T03:41:55.059Z,97761.91
2023-01-17T03:51:56.744Z,97762.63
2023-01-17T04:01:58.518Z,97748.94
2023-01-17T04:12:03.801Z,97763.34
2023-01-17T04:22:05.575Z,97756.47
2023-01-17T04:32:07.975Z,97753.94
2023-01-17T04:42:09.720Z,97746.25
2023-01-17T04:52:11.838Z,97762.34
2023-01-17T05:02:16.231Z,97761.47
2023-01-17T05:22:16.921Z,97757.06
2023-01-17T05:32:18.711Z,97753.66
2023-01-17T05:42:37.031Z,97770.44
2023-01-17T05:52:43.105Z,97785.66
2023-01-17T06:02:47.388Z,97817.09
2023-01-17T06:13:05.211Z,97826.56
2023-01-17T06:23:14.972Z,97836.91
2023-01-17T06:33:17.866Z,97841.97
2023-01-17T06:43:19.836Z,97852.47
2023-01-17T06:53:21.804Z,97872.19
2023-01-17T07:03:27.443Z,97891.72
2023-01-17T07:13:30.893Z,97919.69
2023-01-17T07:23:42.007Z,97935.78
2023-01-17T07:33:51.938Z,97928.38
2023-01-17T07:43:56.254Z,97971.03
2023-01-17T07:54:04.102Z,97992.38
2023-01-17T08:04:05.927Z,98012.78
2023-01-17T08:14:07.707Z,98028.84
2023-01-17T08:24:15.018Z,98038.91
2023-01-17T08:34:18.187Z,98037.50
2023-01-17T08:44:22.550Z,98057.72
2023-01-17T08:54:29.331Z,98063.53
2023-01-17T09:04:31.081Z,98084.25
2023-01-17T09:14:40.157Z,98097.53
2023-01-17T09:24:42.273Z,98095.84
2023-01-17T09:34:47.106Z,98093.88
2023-01-17T09:44:55.935Z,98099.53
2023-01-17T09:54:57.724Z,98146.00
2023-01-17T10:05:35.069Z,98151.78
2023-01-17T10:15:56.539Z,98143.25
2023-01-17T10:26:11.602Z,98157.94
2023-01-17T10:36:28.258Z,98153.34
2023-01-17T10:46:45.172Z,98134.16
2023-01-17T10:56:48.761Z,98127.69
2023-01-17T11:07:10.722Z,98095.97
2023-01-17T11:17:13.626Z,98070.22
2023-01-17T11:28:01.809Z,98070.63
2023-01-17T11:38:07.119Z,98048.66
2023-01-17T11:48:12.735Z,98037.56
2023-01-17T11:58:15.552Z,98059.59
2023-01-17T12:09:01.407Z,98097.63
2023-01-17T12:19:27.165Z,98099.81
2023-01-17T12:29:42.274Z,98090.25
2023-01-17T12:39:54.831Z,98082.84
2023-01-17T12:50:15.539Z,98097.25
2023-01-17T13:00:24.437Z,98078.28
2023-01-17T13:10:37.931Z,98084.34
2023-01-17T13:20:59.290Z,98089.31
2023-01-17T13:31:26.854Z,98105.50
2023-01-17T13:41:52.843Z,98087.63
2023-01-17T13:52:23.377Z,98073.88
2023-01-17T14:02:36.469Z,98056.31
2023-01-17T14:23:33.762Z,97981.41
2023-01-17T14:33:39.948Z,97956.84
2023-01-17T14:43:50.620Z,97955.06
2023-01-17T14:53:57.320Z,97962.44
2023-01-17T15:04:06.554Z,97932.63
2023-01-17T15:14:15.119Z,97936.81
2023-01-17T15:24:45.229Z,97939.53
2023-01-17T15:34:49.381Z,97926.94
2023-01-17T15:44:57.233Z,97910.69
2023-01-17T16:11:55.655Z,97874.94
2023-01-17T16:21:59.156Z,97873.50
2023-01-17T16:32:08.725Z,97875.88
2023-01-17T16:42:25.580Z,97843.94
2023-01-17T16:52:28.555Z,97836.72
2023-01-17T17:02:30.837Z,97819.25
2023-01-17T17:12:33.809Z,97824.84
2023-01-17T17:33:08.023Z,97775.97
2023-01-17T17:43:12.087Z,97767.84
2023-01-17T17:53:35.719Z,97726.09
2023-01-17T18:03:39.143Z,97712.50
2023-01-17T18:24:22.749Z,97641.16
2023-01-17T18:34:29.392Z,97611.53
2023-01-17T18:44:32.813Z,97605.53
2023-01-17T18:54:35.082Z,97597.19
2023-01-17T19:05:20.466Z,97559.78
2023-01-17T19:15:37.929Z,97518.69
2023-01-17T19:25:44.793Z,97520.94
2023-01-17T19:35:47.737Z,97519.50
2023-01-17T19:46:01.491Z,97485.41
2023-01-17T19:56:25.337Z,97449.88
2023-01-17T20:06:37.286Z,97433.84
2023-01-17T20:16:41.549Z,97404.47
2023-01-17T20:26:45.475Z,97417.28
2023-01-17T20:36:51.413Z,97398.13
2023-01-17T20:46:54.173Z,97448.19
2023-01-17T20:56:58.543Z,97385.47
2023-01-17T21:07:06.261Z,97350.84
2023-01-17T21:17:16.460Z,97348.81
2023-01-17T21:27:22.139Z,97302.59
2023-01-17T21:37:31.621Z,97289.78
2023-01-17T21:47:46.731Z,97251.94
2023-01-17T21:58:15.881Z,97282.06
2023-01-17T22:08:21.182Z,97247.94
2023-01-17T22:18:31.655Z,97231.47
2023-01-17T22:28:47.541Z,97235.72
2023-01-17T22:38:51.040Z,97235.94
2023-01-17T22:48:54.570Z,97258.69
2023-01-17T22:58:57.425Z,97268.53
2023-01-17T23:19:25.002Z,97274.06
2023-01-17T23:29:30.984Z,97276.41
2023-01-17T23:39:32.899Z,97294.75
2023-01-17T23:49:48.643Z,97286.84
2023-01-17T23:59:50.835Z,97284.34
